sensor_id;sensor_type;location;lat;lon;timestamp;pressure;altitude;pressure_sealevel;temperature;humidity
43430;BME280;29028;43.234;27.896;2022-11-09T05:01:45;100840.50;;;14.05;91.40
43430;BME280;29028;43.234;27.896;2022-11-09T05:02:07;100841.63;;;13.89;91.37
43430;BME280;29028;43.234;27.896;2022-11-09T05:02:28;100847.97;;;13.75;91.48
43430;BME280;29028;43.234;27.896;2022-11-09T05:02:49;100837.59;;;13.58;91.79
43430;BME280;29028;43.234;27.896;2022-11-09T05:03:10;100830.25;;;13.52;92.10
43430;BME280;29028;43.234;27.896;2022-11-09T05:03:32;100843.56;;;13.53;92.46
43430;BME280;29028;43.234;27.896;2022-11-09T05:03:53;100845.81;;;13.50;92.66
43430;BME280;29028;43.234;27.896;2022-11-09T05:04:14;100844.56;;;13.46;92.75
43430;BME280;29028;43.234;27.896;2022-11-09T05:04:35;100841.84;;;13.46;93.03
43430;BME280;29028;43.234;27.896;2022-11-09T05:04:56;100842.22;;;13.43;93.19
43430;BME280;29028;43.234;27.896;2022-11-09T05:05:17;100833.84;;;13.38;93.17
43430;BME280;29028;43.234;27.896;2022-11-09T05:05:38;100843.63;;;13.39;93.20
43430;BME280;29028;43.234;27.896;2022-11-09T05:06:00;100841.25;;;13.29;93.34
43430;BME280;29028;43.234;27.896;2022-11-09T05:06:42;100837.44;;;13.24;93.68
43430;BME280;29028;43.234;27.896;2022-11-09T05:07:03;100837.03;;;13.27;93.88
43430;BME280;29028;43.234;27.896;2022-11-09T05:07:24;100842.84;;;13.24;93.99
43430;BME280;29028;43.234;27.896;2022-11-09T05:07:45;100848.44;;;13.22;94.01
43430;BME280;29028;43.234;27.896;2022-11-09T05:08:07;100846.97;;;13.20;94.44
43430;BME280;29028;43.234;27.896;2022-11-09T05:08:28;100840.25;;;13.16;94.56
43430;BME280;29028;43.234;27.896;2022-11-09T05:08:49;100846.06;;;13.13;94.76
43430;BME280;29028;43.234;27.896;2022-11-09T05:09:10;100845.38;;;13.11;94.79
43430;BME280;29028;43.234;27.896;2022-11-09T05:09:32;100842.22;;;13.07;95.16
43430;BME280;29028;43.234;27.896;2022-11-09T05:09:53;100843.25;;;13.06;95.43
43430;BME280;29028;43.234;27.896;2022-11-09T05:10:14;100844.22;;;12.99;95.67
43430;BME280;29028;43.234;27.896;2022-11-09T05:10:35;100849.97;;;12.96;96.09
43430;BME280;29028;43.234;27.896;2022-11-09T05:10:57;100842.59;;;12.90;96.15
43430;BME280;29028;43.234;27.896;2022-11-09T05:11:18;100844.09;;;12.92;96.36
43430;BME280;29028;43.234;27.896;2022-11-09T05:11:39;100850.53;;;12.91;96.27
43430;BME280;29028;43.234;27.896;2022-11-09T05:12:00;100852.00;;;12.94;96.31
43430;BME280;29028;43.234;27.896;2022-11-09T05:12:22;100844.56;;;12.96;96.31
43430;BME280;29028;43.234;27.896;2022-11-09T05:12:43;100847.75;;;12.99;96.07
43430;BME280;29028;43.234;27.896;2022-11-09T05:13:05;100847.09;;;12.97;96.25
43430;BME280;29028;43.234;27.896;2022-11-09T05:13:27;100854.44;;;13.03;96.15
43430;BME280;29028;43.234;27.896;2022-11-09T05:13:47;100844.47;;;13.04;96.15
43430;BME280;29028;43.234;27.896;2022-11-09T05:14:08;100845.69;;;12.87;96.42
43430;BME280;29028;43.234;27.896;2022-11-09T05:14:30;100848.03;;;12.75;96.82
43430;BME280;29028;43.234;27.896;2022-11-09T05:14:51;100841.31;;;12.71;97.13
43430;BME280;29028;43.234;27.896;2022-11-09T05:15:12;100846.72;;;12.71;97.44
43430;BME280;29028;43.234;27.896;2022-11-09T05:15:33;100841.88;;;12.67;97.63
43430;BME280;29028;43.234;27.896;2022-11-09T05:15:59;100847.56;;;12.72;97.71
43430;BME280;29028;43.234;27.896;2022-11-09T05:16:20;100839.00;;;12.68;97.79
43430;BME280;29028;43.234;27.896;2022-11-09T05:16:42;100842.53;;;12.69;97.64
43430;BME280;29028;43.234;27.896;2022-11-09T05:17:04;100845.91;;;12.71;97.82
43430;BME280;29028;43.234;27.896;2022-11-09T05:17:28;100847.75;;;12.70;97.74
43430;BME280;29028;43.234;27.896;2022-11-09T05:17:49;100841.06;;;12.66;97.85
43430;BME280;29028;43.234;27.896;2022-11-09T05:18:12;100848.03;;;12.75;97.83
43430;BME280;29028;43.234;27.896;2022-11-09T05:18:34;100851.84;;;12.81;97.83
43430;BME280;29028;43.234;27.896;2022-11-09T05:18:55;100841.88;;;12.81;97.81
43430;BME280;29028;43.234;27.896;2022-11-09T05:19:16;100847.09;;;12.83;97.84
43430;BME280;29028;43.234;27.896;2022-11-09T05:19:37;100853.41;;;12.90;98.00
43430;BME280;29028;43.234;27.896;2022-11-09T05:19:58;100838.78;;;12.84;97.74
43430;BME280;29028;43.234;27.896;2022-11-09T05:20:20;100857.41;;;12.94;97.71
43430;BME280;29028;43.234;27.896;2022-11-09T05:20:41;100857.81;;;12.91;97.67
43430;BME280;29028;43.234;27.896;2022-11-09T05:21:02;100857.31;;;12.87;97.76
43430;BME280;29028;43.234;27.896;2022-11-09T05:21:24;100854.25;;;12.90;97.89
43430;BME280;29028;43.234;27.896;2022-11-09T05:21:45;100854.63;;;12.87;98.01
43430;BME280;29028;43.234;27.896;2022-11-09T05:22:06;100850.69;;;12.90;98.07
43430;BME280;29028;43.234;27.896;2022-11-09T05:22:41;100859.47;;;12.92;98.24
43430;BME280;29028;43.234;27.896;2022-11-09T05:23:21;100858.44;;;12.93;98.33
43430;BME280;29028;43.234;27.896;2022-11-09T05:24:00;100851.84;;;12.95;98.42
43430;BME280;29028;43.234;27.896;2022-11-09T05:24:20;100856.06;;;12.98;98.36
43430;BME280;29028;43.234;27.896;2022-11-09T05:24:42;100855.88;;;12.99;98.29
43430;BME280;29028;43.234;27.896;2022-11-09T05:25:04;100853.16;;;12.99;98.32
43430;BME280;29028;43.234;27.896;2022-11-09T05:25:25;100856.88;;;12.98;98.39
43430;BME280;29028;43.234;27.896;2022-11-09T05:25:46;100860.06;;;13.02;98.67
43430;BME280;29028;43.234;27.896;2022-11-09T05:26:08;100854.84;;;13.00;98.33
43430;BME280;29028;43.234;27.896;2022-11-09T05:26:31;100854.53;;;12.95;98.39
43430;BME280;29028;43.234;27.896;2022-11-09T05:26:53;100854.84;;;13.00;98.38
43430;BME280;29028;43.234;27.896;2022-11-09T05:27:15;100857.81;;;13.05;98.46
43430;BME280;29028;43.234;27.896;2022-11-09T05:27:37;100861.34;;;13.06;98.51
43430;BME280;29028;43.234;27.896;2022-11-09T05:27:58;100862.66;;;13.10;98.30
43430;BME280;29028;43.234;27.896;2022-11-09T05:28:19;100862.66;;;13.10;98.34
43430;BME280;29028;43.234;27.896;2022-11-09T05:28:40;100870.19;;;13.14;98.27
43430;BME280;29028;43.234;27.896;2022-11-09T05:29:04;100865.22;;;13.18;98.24
43430;BME280;29028;43.234;27.896;2022-11-09T05:29:28;100859.63;;;13.19;98.02
43430;BME280;29028;43.234;27.896;2022-11-09T05:29:49;100852.47;;;13.12;98.07
43430;BME280;29028;43.234;27.896;2022-11-09T05:30:11;100864.66;;;13.22;97.96
43430;BME280;29028;43.234;27.896;2022-11-09T05:30:33;100863.00;;;13.21;97.99
43430;BME280;29028;43.234;27.896;2022-11-09T05:30:54;100865.31;;;13.24;98.05
43430;BME280;29028;43.234;27.896;2022-11-09T05:31:15;100860.56;;;13.26;97.79
43430;BME280;29028;43.234;27.896;2022-11-09T05:31:36;100860.75;;;13.25;97.79
43430;BME280;29028;43.234;27.896;2022-11-09T05:31:59;100855.72;;;13.22;97.88
43430;BME280;29028;43.234;27.896;2022-11-09T05:32:23;100863.91;;;13.28;97.90
43430;BME280;29028;43.234;27.896;2022-11-09T05:32:44;100867.66;;;13.27;97.79
43430;BME280;29028;43.234;27.896;2022-11-09T05:33:06;100857.00;;;13.26;97.83
43430;BME280;29028;43.234;27.896;2022-11-09T05:33:27;100866.44;;;13.30;97.78
43430;BME280;29028;43.234;27.896;2022-11-09T05:33:49;100854.56;;;13.31;97.71
43430;BME280;29028;43.234;27.896;2022-11-09T05:34:13;100874.03;;;13.41;97.53
43430;BME280;29028;43.234;27.896;2022-11-09T05:34:34;100874.88;;;13.41;97.40
43430;BME280;29028;43.234;27.896;2022-11-09T05:34:55;100861.06;;;13.36;97.29
43430;BME280;29028;43.234;27.896;2022-11-09T05:35:17;100870.31;;;13.42;97.17
43430;BME280;29028;43.234;27.896;2022-11-09T05:35:38;100867.91;;;13.53;96.76
43430;BME280;29028;43.234;27.896;2022-11-09T05:35:59;100868.41;;;13.57;96.36
43430;BME280;29028;43.234;27.896;2022-11-09T05:36:20;100865.03;;;13.55;95.91
43430;BME280;29028;43.234;27.896;2022-11-09T05:36:42;100871.53;;;13.60;95.43
43430;BME280;29028;43.234;27.896;2022-11-09T05:37:03;100868.84;;;13.60;95.18
43430;BME280;29028;43.234;27.896;2022-11-09T05:37:25;100872.50;;;13.53;95.24
43430;BME280;29028;43.234;27.896;2022-11-09T05:37:46;100869.09;;;13.44;95.18
43430;BME280;29028;43.234;27.896;2022-11-09T05:38:09;100879.50;;;13.47;95.66
43430;BME280;29028;43.234;27.896;2022-11-09T05:38:30;100862.38;;;13.40;95.68
43430;BME280;29028;43.234;27.896;2022-11-09T05:38:51;100875.72;;;13.42;95.87
43430;BME280;29028;43.234;27.896;2022-11-09T05:39:12;100867.50;;;13.35;95.96
43430;BME280;29028;43.234;27.896;2022-11-09T05:39:34;100875.25;;;13.38;96.18
43430;BME280;29028;43.234;27.896;2022-11-09T05:39:55;100883.38;;;13.38;96.31
43430;BME280;29028;43.234;27.896;2022-11-09T05:40:17;100881.22;;;13.34;96.38
43430;BME280;29028;43.234;27.896;2022-11-09T05:40:38;100881.03;;;13.35;96.36
43430;BME280;29028;43.234;27.896;2022-11-09T05:41:00;100881.91;;;13.36;96.32
43430;BME280;29028;43.234;27.896;2022-11-09T05:41:21;100869.94;;;13.30;96.57
43430;BME280;29028;43.234;27.896;2022-11-09T05:41:42;100878.53;;;13.34;96.45
43430;BME280;29028;43.234;27.896;2022-11-09T05:42:03;100876.47;;;13.36;96.32
43430;BME280;29028;43.234;27.896;2022-11-09T05:42:25;100869.78;;;13.32;96.31
43430;BME280;29028;43.234;27.896;2022-11-09T05:42:46;100888.38;;;13.41;96.37
43430;BME280;29028;43.234;27.896;2022-11-09T05:43:08;100883.47;;;13.30;96.24
43430;BME280;29028;43.234;27.896;2022-11-09T05:43:31;100879.00;;;13.37;96.21
43430;BME280;29028;43.234;27.896;2022-11-09T05:43:54;100881.22;;;13.34;96.28
43430;BME280;29028;43.234;27.896;2022-11-09T05:44:14;100876.94;;;13.39;96.15
43430;BME280;29028;43.234;27.896;2022-11-09T05:44:35;100878.09;;;13.51;95.71
43430;BME280;29028;43.234;27.896;2022-11-09T05:44:57;100879.13;;;13.50;95.48
43430;BME280;29028;43.234;27.896;2022-11-09T05:45:21;100871.88;;;13.36;95.22
43430;BME280;29028;43.234;27.896;2022-11-09T05:45:42;100878.50;;;13.48;95.31
43430;BME280;29028;43.234;27.896;2022-11-09T05:46:03;100881.25;;;13.55;95.13
43430;BME280;29028;43.234;27.896;2022-11-09T05:46:25;100881.25;;;13.55;94.73
43430;BME280;29028;43.234;27.896;2022-11-09T05:46:47;100886.81;;;13.68;94.21
43430;BME280;29028;43.234;27.896;2022-11-09T05:47:08;100883.84;;;13.63;93.85
43430;BME280;29028;43.234;27.896;2022-11-09T05:47:36;100885.97;;;13.67;93.46
43430;BME280;29028;43.234;27.896;2022-11-09T05:48:01;100886.75;;;13.61;93.50
43430;BME280;29028;43.234;27.896;2022-11-09T05:48:22;100886.81;;;13.68;93.40
43430;BME280;29028;43.234;27.896;2022-11-09T05:48:44;100866.75;;;13.41;93.32
43430;BME280;29028;43.234;27.896;2022-11-09T05:49:07;100891.84;;;13.35;93.93
43430;BME280;29028;43.234;27.896;2022-11-09T05:49:29;100892.91;;;13.34;94.21
43430;BME280;29028;43.234;27.896;2022-11-09T05:49:50;100894.13;;;13.32;94.60
43430;BME280;29028;43.234;27.896;2022-11-09T05:50:13;100887.22;;;13.29;94.93
43430;BME280;29028;43.234;27.896;2022-11-09T05:50:37;100882.66;;;13.30;95.45
43430;BME280;29028;43.234;27.896;2022-11-09T05:51:00;100887.03;;;13.31;94.96
43430;BME280;29028;43.234;27.896;2022-11-09T05:51:22;100892.00;;;13.27;95.34
43430;BME280;29028;43.234;27.896;2022-11-09T05:51:43;100900.47;;;13.24;95.45
43430;BME280;29028;43.234;27.896;2022-11-09T05:52:04;100888.16;;;13.22;95.61
43430;BME280;29028;43.234;27.896;2022-11-09T05:52:26;100898.16;;;13.21;95.94
43430;BME280;29028;43.234;27.896;2022-11-09T05:52:47;100889.56;;;13.18;96.07
43430;BME280;29028;43.234;27.896;2022-11-09T05:53:08;100892.03;;;13.13;96.44
43430;BME280;29028;43.234;27.896;2022-11-09T05:53:30;100892.75;;;13.21;96.51
43430;BME280;29028;43.234;27.896;2022-11-09T05:53:52;100890.22;;;13.20;96.52
43430;BME280;29028;43.234;27.896;2022-11-09T05:54:13;100892.75;;;13.21;96.70
43430;BME280;29028;43.234;27.896;2022-11-09T05:54:34;100892.94;;;13.20;96.83
43430;BME280;29028;43.234;27.896;2022-11-09T05:54:54;100895.47;;;13.21;96.91
43430;BME280;29028;43.234;27.896;2022-11-09T05:55:16;100899.66;;;13.24;96.78
43430;BME280;29028;43.234;27.896;2022-11-09T05:55:37;100899.06;;;13.28;96.89
43430;BME280;29028;43.234;27.896;2022-11-09T05:56:02;100894.28;;;13.30;96.77
43430;BME280;29028;43.234;27.896;2022-11-09T05:56:24;100888.53;;;13.33;96.62
43430;BME280;29028;43.234;27.896;2022-11-09T05:56:45;100893.16;;;13.39;96.31
43430;BME280;29028;43.234;27.896;2022-11-09T05:57:06;100894.56;;;13.35;96.22
43430;BME280;29028;43.234;27.896;2022-11-09T05:57:27;100892.53;;;13.37;96.15
43430;BME280;29028;43.234;27.896;2022-11-09T05:57:48;100895.41;;;13.36;95.99
43430;BME280;29028;43.234;27.896;2022-11-09T05:58:09;100894.38;;;13.37;95.96
43430;BME280;29028;43.234;27.896;2022-11-09T05:58:32;100895.41;;;13.36;96.12
43430;BME280;29028;43.234;27.896;2022-11-09T05:58:55;100892.91;;;13.34;96.09
43430;BME280;29028;43.234;27.896;2022-11-09T05:59:17;100898.13;;;13.36;96.04
43430;BME280;29028;43.234;27.896;2022-11-09T05:59:39;100898.94;;;13.36;96.07
43430;BME280;29028;43.234;27.896;2022-11-09T05:59:59;100890.81;;;13.36;96.15
43430;BME280;29028;43.234;27.896;2022-11-09T06:00:21;100894.00;;;13.40;96.00
43430;BME280;29028;43.234;27.896;2022-11-09T06:00:42;100906.69;;;13.39;95.87
43430;BME280;29028;43.234;27.896;2022-11-09T06:01:04;100905.47;;;13.42;95.84
43430;BME280;29028;43.234;27.896;2022-11-09T06:01:25;100900.88;;;13.42;96.02
43430;BME280;29028;43.234;27.896;2022-11-09T06:01:46;100902.78;;;13.42;95.98
43430;BME280;29028;43.234;27.896;2022-11-09T06:02:08;100890.66;;;13.38;95.95
43430;BME280;29028;43.234;27.896;2022-11-09T06:02:31;100894.66;;;13.42;95.87
43430;BME280;29028;43.234;27.896;2022-11-09T06:02:52;100895.47;;;13.42;95.88
43430;BME280;29028;43.234;27.896;2022-11-09T06:03:13;100905.75;;;13.47;96.05
43430;BME280;29028;43.234;27.896;2022-11-09T06:03:35;100897.03;;;13.51;95.95
43430;BME280;29028;43.234;27.896;2022-11-09T06:03:55;100902.28;;;13.53;95.85
43430;BME280;29028;43.234;27.896;2022-11-09T06:04:16;100899.56;;;13.53;95.67
43430;BME280;29028;43.234;27.896;2022-11-09T06:04:37;100903.34;;;13.58;95.63
43430;BME280;29028;43.234;27.896;2022-11-09T06:04:59;100904.19;;;13.59;95.43
43430;BME280;29028;43.234;27.896;2022-11-09T06:05:20;100899.81;;;13.58;95.04
43430;BME280;29028;43.234;27.896;2022-11-09T06:05:41;100909.44;;;13.60;95.13
43430;BME280;29028;43.234;27.896;2022-11-09T06:06:05;100900.53;;;13.66;94.93
43430;BME280;29028;43.234;27.896;2022-11-09T06:06:26;100889.09;;;13.64;94.85
43430;BME280;29028;43.234;27.896;2022-11-09T06:06:49;100907.69;;;13.74;94.43
43430;BME280;29028;43.234;27.896;2022-11-09T06:07:11;100910.34;;;13.88;93.92
43430;BME280;29028;43.234;27.896;2022-11-09T06:07:31;100910.78;;;13.92;93.35
43430;BME280;29028;43.234;27.896;2022-11-09T06:07:52;100910.84;;;13.77;93.31
43430;BME280;29028;43.234;27.896;2022-11-09T06:08:14;100906.13;;;13.65;93.33
43430;BME280;29028;43.234;27.896;2022-11-09T06:08:35;100907.09;;;13.57;93.82
43430;BME280;29028;43.234;27.896;2022-11-09T06:08:57;100908.03;;;13.50;94.26
43430;BME280;29028;43.234;27.896;2022-11-09T06:09:18;100907.59;;;13.46;94.45
43430;BME280;29028;43.234;27.896;2022-11-09T06:09:39;100902.31;;;13.38;94.88
43430;BME280;29028;43.234;27.896;2022-11-09T06:09:59;100910.72;;;13.29;95.32
43430;BME280;29028;43.234;27.896;2022-11-09T06:10:21;100910.53;;;13.30;95.55
43430;BME280;29028;43.234;27.896;2022-11-09T06:10:42;100909.25;;;13.26;96.03
43430;BME280;29028;43.234;27.896;2022-11-09T06:11:05;100910.06;;;13.27;96.26
43430;BME280;29028;43.234;27.896;2022-11-09T06:11:26;100899.56;;;13.17;96.51
43430;BME280;29028;43.234;27.896;2022-11-09T06:11:49;100914.47;;;13.13;96.66
43430;BME280;29028;43.234;27.896;2022-11-09T06:12:10;100910.75;;;13.14;97.05
43430;BME280;29028;43.234;27.896;2022-11-09T06:12:30;100910.94;;;13.13;97.06
43430;BME280;29028;43.234;27.896;2022-11-09T06:12:51;100903.84;;;13.12;97.34
43430;BME280;29028;43.234;27.896;2022-11-09T06:13:13;100904.06;;;13.10;97.48
43430;BME280;29028;43.234;27.896;2022-11-09T06:13:34;100903.84;;;13.12;97.61
43430;BME280;29028;43.234;27.896;2022-11-09T06:13:55;100908.97;;;13.21;97.72
43430;BME280;29028;43.234;27.896;2022-11-09T06:14:17;100905.50;;;13.27;97.24
43430;BME280;29028;43.234;27.896;2022-11-09T06:14:38;100910.53;;;13.30;97.41
43430;BME280;29028;43.234;27.896;2022-11-09T06:14:59;100902.88;;;13.34;97.28
43430;BME280;29028;43.234;27.896;2022-11-09T06:15:20;100916.88;;;13.37;97.12
43430;BME280;29028;43.234;27.896;2022-11-09T06:15:42;100913.78;;;13.40;96.92
43430;BME280;29028;43.234;27.896;2022-11-09T06:16:04;100904.44;;;13.43;96.85
43430;BME280;29028;43.234;27.896;2022-11-09T06:16:25;100918.38;;;13.40;96.81
43430;BME280;29028;43.234;27.896;2022-11-09T06:16:47;100912.56;;;13.43;96.73
43430;BME280;29028;43.234;27.896;2022-11-09T06:17:08;100912.19;;;13.46;96.64
43430;BME280;29028;43.234;27.896;2022-11-09T06:17:30;100914.22;;;13.44;96.59
43430;BME280;29028;43.234;27.896;2022-11-09T06:17:51;100897.75;;;13.24;96.45
43430;BME280;29028;43.234;27.896;2022-11-09T06:18:13;100912.94;;;13.40;96.69
43430;BME280;29028;43.234;27.896;2022-11-09T06:18:35;100908.44;;;13.47;96.60
43430;BME280;29028;43.234;27.896;2022-11-09T06:18:56;100916.94;;;13.44;96.52
43430;BME280;29028;43.234;27.896;2022-11-09T06:19:17;100914.53;;;13.34;96.55
43430;BME280;29028;43.234;27.896;2022-11-09T06:19:38;100909.13;;;13.34;96.70
43430;BME280;29028;43.234;27.896;2022-11-09T06:19:59;100906.78;;;13.46;96.53
43430;BME280;29028;43.234;27.896;2022-11-09T06:20:21;100913.09;;;13.53;96.29
43430;BME280;29028;43.234;27.896;2022-11-09T06:20:42;100914.63;;;13.41;96.13
43430;BME280;29028;43.234;27.896;2022-11-09T06:21:04;100896.53;;;13.27;96.29
43430;BME280;29028;43.234;27.896;2022-11-09T06:21:25;100914.19;;;13.23;96.31
43430;BME280;29028;43.234;27.896;2022-11-09T06:21:46;100913.63;;;13.27;96.68
43430;BME280;29028;43.234;27.896;2022-11-09T06:22:07;100919.09;;;13.34;96.70
43430;BME280;29028;43.234;27.896;2022-11-09T06:22:29;100909.97;;;13.35;96.66
43430;BME280;29028;43.234;27.896;2022-11-09T06:22:53;100909.00;;;13.42;96.62
43430;BME280;29028;43.234;27.896;2022-11-09T06:23:14;100913.19;;;13.45;96.14
43430;BME280;29028;43.234;27.896;2022-11-09T06:23:35;100908.03;;;13.50;96.08
43430;BME280;29028;43.234;27.896;2022-11-09T06:23:57;100912.47;;;13.51;95.84
43430;BME280;29028;43.234;27.896;2022-11-09T06:24:18;100913.22;;;13.66;95.48
43430;BME280;29028;43.234;27.896;2022-11-09T06:24:38;100912.72;;;13.77;94.47
43430;BME280;29028;43.234;27.896;2022-11-09T06:24:59;100916.63;;;13.74;94.03
43430;BME280;29028;43.234;27.896;2022-11-09T06:25:21;100917.31;;;13.76;94.11
43430;BME280;29028;43.234;27.896;2022-11-09T06:25:42;100914.19;;;13.79;94.20
43430;BME280;29028;43.234;27.896;2022-11-09T06:26:05;100909.19;;;13.76;94.16
43430;BME280;29028;43.234;27.896;2022-11-09T06:26:26;100911.31;;;13.81;94.35
43430;BME280;29028;43.234;27.896;2022-11-09T06:26:48;100913.41;;;13.85;94.17
43430;BME280;29028;43.234;27.896;2022-11-09T06:27:09;100917.16;;;13.84;94.04
43430;BME280;29028;43.234;27.896;2022-11-09T06:27:30;100917.16;;;13.84;93.82
43430;BME280;29028;43.234;27.896;2022-11-09T06:27:53;100909.97;;;13.70;93.86
43430;BME280;29028;43.234;27.896;2022-11-09T06:28:15;100914.19;;;13.58;94.09
43430;BME280;29028;43.234;27.896;2022-11-09T06:28:36;100911.16;;;13.47;94.38
43430;BME280;29028;43.234;27.896;2022-11-09T06:28:57;100909.84;;;13.43;94.74
43430;BME280;29028;43.234;27.896;2022-11-09T06:29:18;100919.81;;;13.42;95.18
43430;BME280;29028;43.234;27.896;2022-11-09T06:29:40;100923.81;;;13.46;95.28
43430;BME280;29028;43.234;27.896;2022-11-09T06:30:01;100919.09;;;13.34;95.60
43430;BME280;29028;43.234;27.896;2022-11-09T06:30:22;100917.47;;;13.18;96.20
43430;BME280;29028;43.234;27.896;2022-11-09T06:30:42;100920.47;;;13.09;96.61
43430;BME280;29028;43.234;27.896;2022-11-09T06:31:05;100919.59;;;13.08;96.91
43430;BME280;29028;43.234;27.896;2022-11-09T06:31:27;100923.81;;;13.11;97.16
43430;BME280;29028;43.234;27.896;2022-11-09T06:31:48;100918.66;;;13.16;97.32
43430;BME280;29028;43.234;27.896;2022-11-09T06:32:10;100919.13;;;13.19;97.47
43430;BME280;29028;43.234;27.896;2022-11-09T06:32:32;100917.53;;;13.25;97.54
43430;BME280;29028;43.234;27.896;2022-11-09T06:32:57;100918.47;;;13.32;97.29
43430;BME280;29028;43.234;27.896;2022-11-09T06:33:19;100915.75;;;13.32;97.03
43430;BME280;29028;43.234;27.896;2022-11-09T06:33:40;100914.56;;;13.20;97.17
43430;BME280;29028;43.234;27.896;2022-11-09T06:34:01;100920.78;;;13.20;97.06
43430;BME280;29028;43.234;27.896;2022-11-09T06:34:22;100921.81;;;13.19;97.59
43430;BME280;29028;43.234;27.896;2022-11-09T06:34:44;100923.50;;;13.20;97.54
43430;BME280;29028;43.234;27.896;2022-11-09T06:35:08;100911.94;;;13.12;97.66
43430;BME280;29028;43.234;27.896;2022-11-09T06:35:28;100912.44;;;13.15;97.67
43430;BME280;29028;43.234;27.896;2022-11-09T06:35:49;100924.47;;;13.13;97.84
43430;BME280;29028;43.234;27.896;2022-11-09T06:36:11;100912.72;;;13.06;97.98
43430;BME280;29028;43.234;27.896;2022-11-09T06:36:32;100923.16;;;13.09;98.11
43430;BME280;29028;43.234;27.896;2022-11-09T06:36:53;100932.75;;;13.11;98.39
43430;BME280;29028;43.234;27.896;2022-11-09T06:37:15;100932.19;;;13.16;98.48
43430;BME280;29028;43.234;27.896;2022-11-09T06:37:37;100927.50;;;13.24;98.37
43430;BME280;29028;43.234;27.896;2022-11-09T06:37:59;100926.94;;;13.29;97.96
43430;BME280;29028;43.234;27.896;2022-11-09T06:38:19;100920.88;;;13.27;97.85
43430;BME280;29028;43.234;27.896;2022-11-09T06:38:40;100926.47;;;13.25;97.48
43430;BME280;29028;43.234;27.896;2022-11-09T06:39:02;100916.81;;;13.16;97.54
43430;BME280;29028;43.234;27.896;2022-11-09T06:39:23;100924.53;;;13.19;97.68
43430;BME280;29028;43.234;27.896;2022-11-09T06:39:44;100920.63;;;13.22;97.80
43430;BME280;29028;43.234;27.896;2022-11-09T06:40:08;100916.41;;;13.19;97.75
43430;BME280;29028;43.234;27.896;2022-11-09T06:40:30;100926.47;;;13.25;97.61
43430;BME280;29028;43.234;27.896;2022-11-09T06:40:51;100927.50;;;13.24;97.74
43430;BME280;29028;43.234;27.896;2022-11-09T06:41:12;100930.13;;;13.32;97.86
43430;BME280;29028;43.234;27.896;2022-11-09T06:41:33;100929.38;;;13.38;97.61
43430;BME280;29028;43.234;27.896;2022-11-09T06:41:55;100933.16;;;13.44;97.54
43430;BME280;29028;43.234;27.896;2022-11-09T06:42:16;100924.69;;;13.47;97.42
43430;BME280;29028;43.234;27.896;2022-11-09T06:42:37;100931.84;;;13.54;97.36
43430;BME280;29028;43.234;27.896;2022-11-09T06:42:58;100924.56;;;13.55;97.02
43430;BME280;29028;43.234;27.896;2022-11-09T06:43:20;100926.97;;;13.64;96.75
43430;BME280;29028;43.234;27.896;2022-11-09T06:43:41;100929.84;;;13.63;96.37
43430;BME280;29028;43.234;27.896;2022-11-09T06:44:02;100931.09;;;13.60;96.09
43430;BME280;29028;43.234;27.896;2022-11-09T06:44:25;100928.56;;;13.59;96.05
43430;BME280;29028;43.234;27.896;2022-11-09T06:44:46;100935.78;;;13.52;96.18
43430;BME280;29028;43.234;27.896;2022-11-09T06:45:08;100934.47;;;13.48;96.21
43430;BME280;29028;43.234;27.896;2022-11-09T06:45:30;100926.97;;;13.50;96.43
43430;BME280;29028;43.234;27.896;2022-11-09T06:45:52;100930.72;;;13.49;96.57
43430;BME280;29028;43.234;27.896;2022-11-09T06:46:13;100916.03;;;13.37;96.49
43430;BME280;29028;43.234;27.896;2022-11-09T06:46:36;100925.78;;;13.52;96.39
43430;BME280;29028;43.234;27.896;2022-11-09T06:46:58;100926.16;;;13.49;96.35
43430;BME280;29028;43.234;27.896;2022-11-09T06:47:19;100929.31;;;13.53;96.36
43430;BME280;29028;43.234;27.896;2022-11-09T06:47:41;100931.25;;;13.59;96.37
43430;BME280;29028;43.234;27.896;2022-11-09T06:48:05;100917.59;;;13.67;95.79
43430;BME280;29028;43.234;27.896;2022-11-09T06:48:27;100935.22;;;13.77;95.40
43430;BME280;29028;43.234;27.896;2022-11-09T06:48:48;100933.59;;;13.83;94.90
43430;BME280;29028;43.234;27.896;2022-11-09T06:49:09;100937.41;;;13.88;94.42
43430;BME280;29028;43.234;27.896;2022-11-09T06:49:31;100928.00;;;13.84;94.06
43430;BME280;29028;43.234;27.896;2022-11-09T06:49:51;100920.91;;;13.83;93.88
43430;BME280;29028;43.234;27.896;2022-11-09T06:50:12;100925.09;;;13.86;93.86
43430;BME280;29028;43.234;27.896;2022-11-09T06:50:33;100924.66;;;13.82;93.89
43430;BME280;29028;43.234;27.896;2022-11-09T06:50:59;100918.78;;;13.79;93.93
43430;BME280;29028;43.234;27.896;2022-11-09T06:51:20;100937.16;;;13.83;93.98
43430;BME280;29028;43.234;27.896;2022-11-09T06:51:40;100935.41;;;13.97;93.89
43430;BME280;29028;43.234;27.896;2022-11-09T06:52:03;100938.56;;;14.00;93.20
43430;BME280;29028;43.234;27.896;2022-11-09T06:52:24;100933.78;;;14.02;93.21
43430;BME280;29028;43.234;27.896;2022-11-09T06:52:45;100934.19;;;13.99;92.93
43430;BME280;29028;43.234;27.896;2022-11-09T06:53:09;100933.78;;;14.02;92.77
43430;BME280;29028;43.234;27.896;2022-11-09T06:53:30;100934.72;;;14.09;92.41
43430;BME280;29028;43.234;27.896;2022-11-09T06:53:52;100933.31;;;14.13;91.95
43430;BME280;29028;43.234;27.896;2022-11-09T06:54:13;100933.31;;;14.13;91.76